sensor_id;sensor_type;location;lat;lon;timestamp;temperature;humidity
39621;DHT22;25309;48.686;9.170;2024-01-07T00:01:52;5.70;99.90
39621;DHT22;25309;48.686;9.170;2024-01-07T00:04:19;5.80;99.90
39621;DHT22;25309;48.686;9.170;2024-01-07T00:06:48;5.80;99.90
39621;DHT22;25309;48.686;9.170;2024-01-07T00:09:16;5.80;99.90
39621;DHT22;25309;48.686;9.170;2024-01-07T00:11:43;5.70;99.90
39621;DHT22;25309;48.686;9.170;2024-01-07T00:14:10;5.80;99.90
39621;DHT22;25309;48.686;9.170;2024-01-07T00:16:37;5.80;99.90
39621;DHT22;25309;48.686;9.170;2024-01-07T00:19:04;5.70;99.90
39621;DHT22;25309;48.686;9.170;2024-01-07T00:21:31;5.80;99.90
39621;DHT22;25309;48.686;9.170;2024-01-07T00:23:59;5.80;99.90
39621;DHT22;25309;48.686;9.170;2024-01-07T00:26:26;5.70;99.90
39621;DHT22;25309;48.686;9.170;2024-01-07T00:28:53;5.70;99.90
39621;DHT22;25309;48.686;9.170;2024-01-07T00:31:20;5.80;99.90
39621;DHT22;25309;48.686;9.170;2024-01-07T00:33:47;5.80;99.90
39621;DHT22;25309;48.686;9.170;2024-01-07T00:36:14;5.80;99.90
39621;DHT22;25309;48.686;9.170;2024-01-07T00:38:42;5.80;99.90
39621;DHT22;25309;48.686;9.170;2024-01-07T00:41:10;5.80;99.90
39621;DHT22;25309;48.686;9.170;2024-01-07T00:43:37;5.80;99.90
39621;DHT22;25309;48.686;9.170;2024-01-07T00:46:04;5.80;99.90
39621;DHT22;25309;48.686;9.170;2024-01-07T00:48:32;5.80;99.90
39621;DHT22;25309;48.686;9.170;2024-01-07T00:50:59;5.80;99.90
39621;DHT22;25309;48.686;9.170;2024-01-07T00:53:26;5.90;99.90
39621;DHT22;25309;48.686;9.170;2024-01-07T00:55:53;5.90;99.90
39621;DHT22;25309;48.686;9.170;2024-01-07T00:58:21;5.90;99.90
39621;DHT22;25309;48.686;9.170;2024-01-07T01:00:48;5.90;99.90
39621;DHT22;25309;48.686;9.170;2024-01-07T01:03:15;5.90;99.90
39621;DHT22;25309;48.686;9.170;2024-01-07T01:05:42;5.80;99.90
39621;DHT22;25309;48.686;9.170;2024-01-07T01:08:09;5.80;99.90
39621;DHT22;25309;48.686;9.170;2024-01-07T01:10:36;5.80;99.90
39621;DHT22;25309;48.686;9.170;2024-01-07T01:13:03;5.80;99.90
39621;DHT22;25309;48.686;9.170;2024-01-07T01:15:32;5.70;99.90
39621;DHT22;25309;48.686;9.170;2024-01-07T01:17:59;5.70;99.90
39621;DHT22;25309;48.686;9.170;2024-01-07T01:20:26;5.70;99.90
39621;DHT22;25309;48.686;9.170;2024-01-07T01:22:53;5.70;99.90
39621;DHT22;25309;48.686;9.170;2024-01-07T01:25:20;5.70;99.90
39621;DHT22;25309;48.686;9.170;2024-01-07T01:27:47;5.70;99.90
39621;DHT22;25309;48.686;9.170;2024-01-07T01:30:14;5.70;99.90
39621;DHT22;25309;48.686;9.170;2024-01-07T01:32:43;5.60;99.90
39621;DHT22;25309;48.686;9.170;2024-01-07T01:35:11;5.60;99.90
39621;DHT22;25309;48.686;9.170;2024-01-07T01:37:38;5.60;99.90
39621;DHT22;25309;48.686;9.170;2024-01-07T01:40:05;5.60;99.90
39621;DHT22;25309;48.686;9.170;2024-01-07T01:42:33;5.60;99.90
39621;DHT22;25309;48.686;9.170;2024-01-07T01:45:00;5.60;99.90
39621;DHT22;25309;48.686;9.170;2024-01-07T01:47:29;5.60;99.90
39621;DHT22;25309;48.686;9.170;2024-01-07T01:49:58;5.60;99.90
39621;DHT22;25309;48.686;9.170;2024-01-07T01:52:26;5.60;99.90
39621;DHT22;25309;48.686;9.170;2024-01-07T01:54:54;5.60;99.90
39621;DHT22;25309;48.686;9.170;2024-01-07T01:57:22;5.60;99.90
39621;DHT22;25309;48.686;9.170;2024-01-07T01:59:51;5.60;99.90
39621;DHT22;25309;48.686;9.170;2024-01-07T02:02:20;5.60;99.90
39621;DHT22;25309;48.686;9.170;2024-01-07T02:04:47;5.60;99.90
39621;DHT22;25309;48.686;9.170;2024-01-07T02:07:15;5.60;99.90
39621;DHT22;25309;48.686;9.170;2024-01-07T02:09:42;5.60;99.90
39621;DHT22;25309;48.686;9.170;2024-01-07T02:12:09;5.60;99.90
39621;DHT22;25309;48.686;9.170;2024-01-07T02:14:39;5.70;99.90
39621;DHT22;25309;48.686;9.170;2024-01-07T02:17:06;5.60;99.90
39621;DHT22;25309;48.686;9.170;2024-01-07T02:19:33;5.60;99.90
39621;DHT22;25309;48.686;9.170;2024-01-07T02:22:00;5.60;99.90
39621;DHT22;25309;48.686;9.170;2024-01-07T02:24:29;5.70;99.90
39621;DHT22;25309;48.686;9.170;2024-01-07T02:26:57;5.70;99.90
39621;DHT22;25309;48.686;9.170;2024-01-07T02:29:24;5.70;99.90
39621;DHT22;25309;48.686;9.170;2024-01-07T02:31:51;5.70;99.90
39621;DHT22;25309;48.686;9.170;2024-01-07T02:34:18;5.60;99.90
39621;DHT22;25309;48.686;9.170;2024-01-07T02:36:45;5.60;99.90
39621;DHT22;25309;48.686;9.170;2024-01-07T02:39:12;5.60;99.90
39621;DHT22;25309;48.686;9.170;2024-01-07T02:41:41;5.50;99.90
39621;DHT22;25309;48.686;9.170;2024-01-07T02:44:08;5.50;99.90
39621;DHT22;25309;48.686;9.170;2024-01-07T02:46:38;5.60;99.90
39621;DHT22;25309;48.686;9.170;2024-01-07T02:49:05;5.60;99.90
39621;DHT22;25309;48.686;9.170;2024-01-07T02:51:32;5.50;99.90
39621;DHT22;25309;48.686;9.170;2024-01-07T02:53:59;5.50;99.90
39621;DHT22;25309;48.686;9.170;2024-01-07T02:56:26;5.50;99.90
39621;DHT22;25309;48.686;9.170;2024-01-07T02:58:55;5.50;99.90
39621;DHT22;25309;48.686;9.170;2024-01-07T03:01:22;5.40;99.90
39621;DHT22;25309;48.686;9.170;2024-01-07T03:03:50;5.40;99.90
39621;DHT22;25309;48.686;9.170;2024-01-07T03:06:17;5.40;99.90
39621;DHT22;25309;48.686;9.170;2024-01-07T03:08:44;5.50;99.90
39621;DHT22;25309;48.686;9.170;2024-01-07T03:11:11;5.50;99.90
39621;DHT22;25309;48.686;9.170;2024-01-07T03:13:40;5.50;99.90
39621;DHT22;25309;48.686;9.170;2024-01-07T03:16:08;5.50;99.90
39621;DHT22;25309;48.686;9.170;2024-01-07T03:18:45;5.50;99.90
39621;DHT22;25309;48.686;9.170;2024-01-07T03:21:17;5.50;99.90
39621;DHT22;25309;48.686;9.170;2024-01-07T03:23:44;5.50;99.90
39621;DHT22;25309;48.686;9.170;2024-01-07T03:26:11;5.50;99.90
39621;DHT22;25309;48.686;9.170;2024-01-07T03:28:38;5.50;99.90
39621;DHT22;25309;48.686;9.170;2024-01-07T03:31:05;5.50;99.90
39621;DHT22;25309;48.686;9.170;2024-01-07T03:33:34;5.50;99.90
39621;DHT22;25309;48.686;9.170;2024-01-07T03:36:01;5.40;99.90
39621;DHT22;25309;48.686;9.170;2024-01-07T03:38:32;5.40;99.90
39621;DHT22;25309;48.686;9.170;2024-01-07T03:40:59;5.40;99.90
39621;DHT22;25309;48.686;9.170;2024-01-07T03:43:26;5.40;99.90
39621;DHT22;25309;48.686;9.170;2024-01-07T03:45:53;5.40;99.90
39621;DHT22;25309;48.686;9.170;2024-01-07T03:48:20;5.40;99.90
39621;DHT22;25309;48.686;9.170;2024-01-07T03:50:48;5.40;99.90
39621;DHT22;25309;48.686;9.170;2024-01-07T03:53:16;5.40;99.90
39621;DHT22;25309;48.686;9.170;2024-01-07T03:55:43;5.40;99.90
39621;DHT22;25309;48.686;9.170;2024-01-07T03:58:10;5.40;99.90
39621;DHT22;25309;48.686;9.170;2024-01-07T04:00:37;5.40;99.90
39621;DHT22;25309;48.686;9.170;2024-01-07T04:03:04;5.40;99.90
39621;DHT22;25309;48.686;9.170;2024-01-07T04:05:31;5.40;99.90
39621;DHT22;25309;48.686;9.170;2024-01-07T04:08:01;5.30;99.90
39621;DHT22;25309;48.686;9.170;2024-01-07T04:10:29;5.30;99.90
39621;DHT22;25309;48.686;9.170;2024-01-07T04:12:56;5.30;99.90
39621;DHT22;25309;48.686;9.170;2024-01-07T04:15:23;5.30;99.90
39621;DHT22;25309;48.686;9.170;2024-01-07T04:17:50;5.20;99.90
39621;DHT22;25309;48.686;9.170;2024-01-07T04:20:18;5.20;99.90
39621;DHT22;25309;48.686;9.170;2024-01-07T04:22:44;5.10;99.90
39621;DHT22;25309;48.686;9.170;2024-01-07T04:25:13;5.10;99.90
39621;DHT22;25309;48.686;9.170;2024-01-07T04:27:40;5.00;99.90
39621;DHT22;25309;48.686;9.170;2024-01-07T04:30:07;5.00;99.90
39621;DHT22;25309;48.686;9.170;2024-01-07T04:32:34;5.00;99.90
39621;DHT22;25309;48.686;9.170;2024-01-07T04:35:01;5.00;99.90
39621;DHT22;25309;48.686;9.170;2024-01-07T04:37:28;5.00;99.90
39621;DHT22;25309;48.686;9.170;2024-01-07T04:39:55;5.10;99.90
39621;DHT22;25309;48.686;9.170;2024-01-07T04:42:24;5.10;99.90
39621;DHT22;25309;48.686;9.170;2024-01-07T04:44:51;5.10;99.90
39621;DHT22;25309;48.686;9.170;2024-01-07T04:47:25;5.10;99.90
39621;DHT22;25309;48.686;9.170;2024-01-07T04:49:53;5.10;99.90
39621;DHT22;25309;48.686;9.170;2024-01-07T04:52:21;5.00;99.90
39621;DHT22;25309;48.686;9.170;2024-01-07T04:54:48;5.00;99.90
39621;DHT22;25309;48.686;9.170;2024-01-07T04:57:15;4.90;99.90
39621;DHT22;25309;48.686;9.170;2024-01-07T04:59:43;4.90;99.90
39621;DHT22;25309;48.686;9.170;2024-01-07T05:02:11;4.90;99.90
39621;DHT22;25309;48.686;9.170;2024-01-07T05:04:38;4.90;99.90
39621;DHT22;25309;48.686;9.170;2024-01-07T05:07:05;4.80;99.90
39621;DHT22;25309;48.686;9.170;2024-01-07T05:09:33;4.80;99.90
39621;DHT22;25309;48.686;9.170;2024-01-07T05:12:00;4.80;99.90
39621;DHT22;25309;48.686;9.170;2024-01-07T05:14:27;4.80;99.90
39621;DHT22;25309;48.686;9.170;2024-01-07T05:16:56;4.80;99.90
39621;DHT22;25309;48.686;9.170;2024-01-07T05:19:23;4.80;99.90
39621;DHT22;25309;48.686;9.170;2024-01-07T05:21:50;4.90;99.90
39621;DHT22;25309;48.686;9.170;2024-01-07T05:24:17;4.90;99.90
39621;DHT22;25309;48.686;9.170;2024-01-07T05:26:44;4.90;99.90
39621;DHT22;25309;48.686;9.170;2024-01-07T05:29:12;4.90;99.90
39621;DHT22;25309;48.686;9.170;2024-01-07T05:31:39;4.90;99.90
39621;DHT22;25309;48.686;9.170;2024-01-07T05:34:08;4.90;99.90
39621;DHT22;25309;48.686;9.170;2024-01-07T05:36:35;4.90;99.90
39621;DHT22;25309;48.686;9.170;2024-01-07T05:39:02;4.90;99.90
39621;DHT22;25309;48.686;9.170;2024-01-07T05:41:29;4.90;99.90
39621;DHT22;25309;48.686;9.170;2024-01-07T05:43:56;4.90;99.90
39621;DHT22;25309;48.686;9.170;2024-01-07T05:46:24;4.90;99.90
39621;DHT22;25309;48.686;9.170;2024-01-07T05:48:51;4.90;99.90
39621;DHT22;25309;48.686;9.170;2024-01-07T05:51:20;4.90;99.90
39621;DHT22;25309;48.686;9.170;2024-01-07T05:53:47;4.90;99.90
39621;DHT22;25309;48.686;9.170;2024-01-07T05:56:14;4.90;99.90
39621;DHT22;25309;48.686;9.170;2024-01-07T05:58:41;4.90;99.90
39621;DHT22;25309;48.686;9.170;2024-01-07T06:01:08;4.90;99.90
39621;DHT22;25309;48.686;9.170;2024-01-07T06:03:36;4.90;99.90
39621;DHT22;25309;48.686;9.170;2024-01-07T06:06:04;4.90;99.90
39621;DHT22;25309;48.686;9.170;2024-01-07T06:08:32;4.90;99.90
39621;DHT22;25309;48.686;9.170;2024-01-07T06:10:59;4.90;99.90
39621;DHT22;25309;48.686;9.170;2024-01-07T06:13:26;4.90;99.90
39621;DHT22;25309;48.686;9.170;2024-01-07T06:15:53;5.00;99.90
39621;DHT22;25309;48.686;9.170;2024-01-07T06:18:20;5.00;99.90
39621;DHT22;25309;48.686;9.170;2024-01-07T06:20:47;5.00;99.90
39621;DHT22;25309;48.686;9.170;2024-01-07T06:23:14;5.00;99.90
39621;DHT22;25309;48.686;9.170;2024-01-07T06:25:43;4.90;99.90
39621;DHT22;25309;48.686;9.170;2024-01-07T06:28:10;4.90;99.90
39621;DHT22;25309;48.686;9.170;2024-01-07T06:30:37;4.90;99.90
39621;DHT22;25309;48.686;9.170;2024-01-07T06:33:05;4.80;99.90
39621;DHT22;25309;48.686;9.170;2024-01-07T06:35:32;4.80;99.90
39621;DHT22;25309;48.686;9.170;2024-01-07T06:37:59;4.80;99.90
39621;DHT22;25309;48.686;9.170;2024-01-07T06:40:26;4.80;99.90
39621;DHT22;25309;48.686;9.170;2024-01-07T06:42:54;4.70;99.90
39621;DHT22;25309;48.686;9.170;2024-01-07T06:45:21;4.70;99.90
39621;DHT22;25309;48.686;9.170;2024-01-07T06:47:48;4.70;99.90
39621;DHT22;25309;48.686;9.170;2024-01-07T06:50:16;4.70;99.90
39621;DHT22;25309;48.686;9.170;2024-01-07T06:52:43;4.70;99.90
39621;DHT22;25309;48.686;9.170;2024-01-07T06:55:10;4.70;99.90
39621;DHT22;25309;48.686;9.170;2024-01-07T06:57:37;4.70;99.90
39621;DHT22;25309;48.686;9.170;2024-01-07T07:00:06;4.70;99.90
39621;DHT22;25309;48.686;9.170;2024-01-07T07:02:35;4.80;99.90
39621;DHT22;25309;48.686;9.170;2024-01-07T07:05:02;4.80;99.90
39621;DHT22;25309;48.686;9.170;2024-01-07T07:07:29;4.80;99.90
39621;DHT22;25309;48.686;9.170;2024-01-07T07:09:56;4.70;99.90
39621;DHT22;25309;48.686;9.170;2024-01-07T07:12:23;4.70;99.90
39621;DHT22;25309;48.686;9.170;2024-01-07T07:14:50;4.70;99.90
39621;DHT22;25309;48.686;9.170;2024-01-07T07:17:18;4.70;99.90
39621;DHT22;25309;48.686;9.170;2024-01-07T07:19:45;4.80;99.90
39621;DHT22;25309;48.686;9.170;2024-01-07T07:22:12;4.80;99.90
39621;DHT22;25309;48.686;9.170;2024-01-07T07:24:40;4.80;99.90
39621;DHT22;25309;48.686;9.170;2024-01-07T07:27:07;4.70;99.90
39621;DHT22;25309;48.686;9.170;2024-01-07T07:29:34;4.70;99.90
39621;DHT22;25309;48.686;9.170;2024-01-07T07:32:01;4.70;99.90
39621;DHT22;25309;48.686;9.170;2024-01-07T07:34:30;4.70;99.90
39621;DHT22;25309;48.686;9.170;2024-01-07T07:37:00;4.70;99.90
39621;DHT22;25309;48.686;9.170;2024-01-07T07:39:27;4.70;99.90
39621;DHT22;25309;48.686;9.170;2024-01-07T07:41:53;4.70;99.90
39621;DHT22;25309;48.686;9.170;2024-01-07T07:44:20;4.70;99.90
39621;DHT22;25309;48.686;9.170;2024-01-07T07:46:47;4.60;99.90
39621;DHT22;25309;48.686;9.170;2024-01-07T07:49:14;4.50;99.90
39621;DHT22;25309;48.686;9.170;2024-01-07T07:51:43;4.50;99.90
39621;DHT22;25309;48.686;9.170;2024-01-07T07:54:10;4.50;99.90
39621;DHT22;25309;48.686;9.170;2024-01-07T07:56:37;4.50;99.90
39621;DHT22;25309;48.686;9.170;2024-01-07T07:59:05;4.50;99.90
39621;DHT22;25309;48.686;9.170;2024-01-07T08:01:32;4.50;99.90
39621;DHT22;25309;48.686;9.170;2024-01-07T08:03:59;4.50;99.90
39621;DHT22;25309;48.686;9.170;2024-01-07T08:06:26;4.50;99.90
39621;DHT22;25309;48.686;9.170;2024-01-07T08:08:54;4.50;99.90
39621;DHT22;25309;48.686;9.170;2024-01-07T08:11:21;4.50;99.90
39621;DHT22;25309;48.686;9.170;2024-01-07T08:13:48;4.50;99.90
39621;DHT22;25309;48.686;9.170;2024-01-07T08:16:15;4.50;99.90
39621;DHT22;25309;48.686;9.170;2024-01-07T08:18:42;4.40;99.90
39621;DHT22;25309;48.686;9.170;2024-01-07T08:21:09;4.40;99.90
39621;DHT22;25309;48.686;9.170;2024-01-07T08:23:37;4.40;99.90
39621;DHT22;25309;48.686;9.170;2024-01-07T08:26:05;4.40;99.90
39621;DHT22;25309;48.686;9.170;2024-01-07T08:28:32;4.30;99.90
39621;DHT22;25309;48.686;9.170;2024-01-07T08:30:59;4.30;99.90
39621;DHT22;25309;48.686;9.170;2024-01-07T08:33:26;4.30;99.90
39621;DHT22;25309;48.686;9.170;2024-01-07T08:35:53;4.30;99.90
39621;DHT22;25309;48.686;9.170;2024-01-07T08:38:20;4.30;99.90
39621;DHT22;25309;48.686;9.170;2024-01-07T08:40:47;4.30;99.90
39621;DHT22;25309;48.686;9.170;2024-01-07T08:43:16;4.30;99.90
39621;DHT22;25309;48.686;9.170;2024-01-07T08:45:43;4.30;99.90
39621;DHT22;25309;48.686;9.170;2024-01-07T08:48:10;4.30;99.90
39621;DHT22;25309;48.686;9.170;2024-01-07T08:50:39;4.30;99.90
39621;DHT22;25309;48.686;9.170;2024-01-07T08:53:06;4.30;99.90
39621;DHT22;25309;48.686;9.170;2024-01-07T08:55:33;4.20;99.90
39621;DHT22;25309;48.686;9.170;2024-01-07T08:58:00;4.20;99.90
39621;DHT22;25309;48.686;9.170;2024-01-07T09:00:28;4.30;99.90
39621;DHT22;25309;48.686;9.170;2024-01-07T09:02:58;4.30;99.90
39621;DHT22;25309;48.686;9.170;2024-01-07T09:05:25;4.40;99.90
39621;DHT22;25309;48.686;9.170;2024-01-07T09:07:52;4.30;99.90
39621;DHT22;25309;48.686;9.170;2024-01-07T09:10:19;4.30;99.90
39621;DHT22;25309;48.686;9.170;2024-01-07T09:12:47;4.20;99.90
39621;DHT22;25309;48.686;9.170;2024-01-07T09:15:18;4.20;99.90
39621;DHT22;25309;48.686;9.170;2024-01-07T09:17:46;4.20;99.90
39621;DHT22;25309;48.686;9.170;2024-01-07T09:20:14;4.20;99.90
39621;DHT22;25309;48.686;9.170;2024-01-07T09:22:41;4.10;99.90
39621;DHT22;25309;48.686;9.170;2024-01-07T09:25:09;4.10;99.90
39621;DHT22;25309;48.686;9.170;2024-01-07T09:27:36;4.20;99.90
39621;DHT22;25309;48.686;9.170;2024-01-07T09:30:03;4.20;99.90
39621;DHT22;25309;48.686;9.170;2024-01-07T09:32:31;4.30;99.90
39621;DHT22;25309;48.686;9.170;2024-01-07T09:35:03;4.30;99.90
39621;DHT22;25309;48.686;9.170;2024-01-07T09:37:32;4.30;99.90
39621;DHT22;25309;48.686;9.170;2024-01-07T09:39:59;4.20;99.90
39621;DHT22;25309;48.686;9.170;2024-01-07T09:42:27;4.20;99.90
39621;DHT22;25309;48.686;9.170;2024-01-07T09:44:54;4.10;99.90
39621;DHT22;25309;48.686;9.170;2024-01-07T09:47:21;4.10;99.90
39621;DHT22;25309;48.686;9.170;2024-01-07T09:49:50;4.10;99.90
39621;DHT22;25309;48.686;9.170;2024-01-07T09:52:20;4.10;99.90
39621;DHT22;25309;48.686;9.170;2024-01-07T09:54:51;4.10;99.90
39621;DHT22;25309;48.686;9.170;2024-01-07T09:57:18;4.10;99.90
39621;DHT22;25309;48.686;9.170;2024-01-07T09:59:45;4.10;99.90
39621;DHT22;25309;48.686;9.170;2024-01-07T10:02:14;4.10;99.90
39621;DHT22;25309;48.686;9.170;2024-01-07T10:04:42;4.10;99.90
39621;DHT22;25309;48.686;9.170;2024-01-07T10:07:11;4.00;99.90
39621;DHT22;25309;48.686;9.170;2024-01-07T10:09:41;4.10;99.90
39621;DHT22;25309;48.686;9.170;2024-01-07T10:12:10;4.00;99.90
39621;DHT22;25309;48.686;9.170;2024-01-07T10:14:39;3.90;99.90
39621;DHT22;25309;48.686;9.170;2024-01-07T10:17:14;3.90;99.90
39621;DHT22;25309;48.686;9.170;2024-01-07T10:19:43;3.90;99.90
39621;DHT22;25309;48.686;9.170;2024-01-07T10:22:12;3.80;99.90
39621;DHT22;25309;48.686;9.170;2024-01-07T10:24:41;3.80;99.90
39621;DHT22;25309;48.686;9.170;2024-01-07T10:27:09;3.80;99.90
39621;DHT22;25309;48.686;9.170;2024-01-07T10:29:37;3.80;99.90
39621;DHT22;25309;48.686;9.170;2024-01-07T10:32:05;3.80;99.90
39621;DHT22;25309;48.686;9.170;2024-01-07T10:34:34;3.90;99.90
39621;DHT22;25309;48.686;9.170;2024-01-07T10:37:03;3.90;99.90
39621;DHT22;25309;48.686;9.170;2024-01-07T10:39:30;3.90;99.90
39621;DHT22;25309;48.686;9.170;2024-01-07T10:41:59;3.90;99.90
39621;DHT22;25309;48.686;9.170;2024-01-07T10:44:27;3.90;99.90
39621;DHT22;25309;48.686;9.170;2024-01-07T10:46:55;3.90;99.90
39621;DHT22;25309;48.686;9.170;2024-01-07T10:49:24;3.90;99.90
39621;DHT22;25309;48.686;9.170;2024-01-07T10:52:02;3.90;99.90
39621;DHT22;25309;48.686;9.170;2024-01-07T10:54:31;3.90;99.90
39621;DHT22;25309;48.686;9.170;2024-01-07T10:57:07;3.80;99.90
39621;DHT22;25309;48.686;9.170;2024-01-07T10:59:34;3.80;99.90
39621;DHT22;25309;48.686;9.170;2024-01-07T11:02:02;3.80;99.90
39621;DHT22;25309;48.686;9.170;2024-01-07T11:04:37;3.70;99.90
39621;DHT22;25309;48.686;9.170;2024-01-07T11:07:13;3.60;99.90
39621;DHT22;25309;48.686;9.170;2024-01-07T11:09:53;3.60;99.90
39621;DHT22;25309;48.686;9.170;2024-01-07T11:12:23;3.50;99.90
39621;DHT22;25309;48.686;9.170;2024-01-07T11:14:50;3.50;99.90
39621;DHT22;25309;48.686;9.170;2024-01-07T11:17:41;3.50;99.90
39621;DHT22;25309;48.686;9.170;2024-01-07T11:20:17;3.40;99.90
39621;DHT22;25309;48.686;9.170;2024-01-07T11:22:45;3.40;99.90
39621;DHT22;25309;48.686;9.170;2024-01-07T11:25:30;3.30;99.90
39621;DHT22;25309;48.686;9.170;2024-01-07T11:28:00;3.30;99.90
39621;DHT22;25309;48.686;9.170;2024-01-07T11:30:28;3.30;99.90
39621;DHT22;25309;48.686;9.170;2024-01-07T11:32:57;3.30;99.90
39621;DHT22;25309;48.686;9.170;2024-01-07T11:35:54;3.30;99.90
39621;DHT22;25309;48.686;9.170;2024-01-07T11:38:23;3.30;99.90
39621;DHT22;25309;48.686;9.170;2024-01-07T11:40:50;3.30;99.90
39621;DHT22;25309;48.686;9.170;2024-01-07T11:43:19;3.20;99.90
39621;DHT22;25309;48.686;9.170;2024-01-07T11:45:46;3.20;99.90
39621;DHT22;25309;48.686;9.170;2024-01-07T11:48:14;3.20;99.90
39621;DHT22;25309;48.686;9.170;2024-01-07T11:50:41;3.20;99.90
39621;DHT22;25309;48.686;9.170;2024-01-07T11:53:12;3.20;99.90
39621;DHT22;25309;48.686;9.170;2024-01-07T11:55:39;3.30;99.90
39621;DHT22;25309;48.686;9.170;2024-01-07T11:58:06;3.30;99.90
39621;DHT22;25309;48.686;9.170;2024-01-07T12:00:35;3.30;99.90
39621;DHT22;25309;48.686;9.170;2024-01-07T12:03:03;3.30;99.90
39621;DHT22;25309;48.686;9.170;2024-01-07T12:05:30;3.30;99.90
39621;DHT22;25309;48.686;9.170;2024-01-07T12:07:59;3.30;99.90
39621;DHT22;25309;48.686;9.170;2024-01-07T12:10:26;3.30;99.90
39621;DHT22;25309;48.686;9.170;2024-01-07T12:12:54;3.20;99.90
39621;DHT22;25309;48.686;9.170;2024-01-07T12:15:21;3.20;99.90
39621;DHT22;25309;48.686;9.170;2024-01-07T12:17:58;3.10;99.90
39621;DHT22;25309;48.686;9.170;2024-01-07T12:20:26;3.10;99.90
39621;DHT22;25309;48.686;9.170;2024-01-07T12:22:56;3.10;99.90
39621;DHT22;25309;48.686;9.170;2024-01-07T12:25:23;3.10;99.90
39621;DHT22;25309;48.686;9.170;2024-01-07T12:27:51;3.10;99.90
39621;DHT22;25309;48.686;9.170;2024-01-07T12:30:20;3.10;99.90
39621;DHT22;25309;48.686;9.170;2024-01-07T12:32:47;3.10;99.90
39621;DHT22;25309;48.686;9.170;2024-01-07T12:35:16;3.10;99.90
39621;DHT22;25309;48.686;9.170;2024-01-07T12:37:43;3.00;99.90
39621;DHT22;25309;48.686;9.170;2024-01-07T12:40:12;3.10;99.90
39621;DHT22;25309;48.686;9.170;2024-01-07T12:42:39;3.00;99.90
39621;DHT22;25309;48.686;9.170;2024-01-07T12:45:16;3.10;99.90
39621;DHT22;25309;48.686;9.170;2024-01-07T12:47:43;3.10;99.90
39621;DHT22;25309;48.686;9.170;2024-01-07T12:50:11;3.10;99.90
39621;DHT22;25309;48.686;9.170;2024-01-07T12:52:39;3.10;99.90
39621;DHT22;25309;48.686;9.170;2024-01-07T12:55:08;3.00;99.90
39621;DHT22;25309;48.686;9.170;2024-01-07T12:57:35;3.00;99.90
39621;DHT22;25309;48.686;9.170;2024-01-07T13:00:03;2.90;99.90
39621;DHT22;25309;48.686;9.170;2024-01-07T13:02:33;2.90;99.90
39621;DHT22;25309;48.686;9.170;2024-01-07T13:05:01;2.80;99.90
39621;DHT22;25309;48.686;9.170;2024-01-07T13:07:30;2.80;99.90
39621;DHT22;25309;48.686;9.170;2024-01-07T13:09:58;2.80;99.90
39621;DHT22;25309;48.686;9.170;2024-01-07T13:12:26;2.80;99.90
39621;DHT22;25309;48.686;9.170;2024-01-07T13:15:12;2.80;99.90
39621;DHT22;25309;48.686;9.170;2024-01-07T13:17:43;2.80;99.90
39621;DHT22;25309;48.686;9.170;2024-01-07T13:20:10;2.70;99.90
39621;DHT22;25309;48.686;9.170;2024-01-07T13:22:38;2.80;99.90
39621;DHT22;25309;48.686;9.170;2024-01-07T13:25:07;2.80;99.90
39621;DHT22;25309;48.686;9.170;2024-01-07T13:27:35;2.70;99.90
39621;DHT22;25309;48.686;9.170;2024-01-07T13:30:04;2.70;99.90
39621;DHT22;25309;48.686;9.170;2024-01-07T13:32:33;2.70;99.90
39621;DHT22;25309;48.686;9.170;2024-01-07T13:35:07;2.70;99.90
39621;DHT22;25309;48.686;9.170;2024-01-07T13:37:38;2.70;99.90
39621;DHT22;25309;48.686;9.170;2024-01-07T13:40:10;2.70;99.90
39621;DHT22;25309;48.686;9.170;2024-01-07T13:42:38;2.70;99.90
39621;DHT22;25309;48.686;9.170;2024-01-07T13:45:05;2.60;99.90
39621;DHT22;25309;48.686;9.170;2024-01-07T13:47:32;2.70;99.90
39621;DHT22;25309;48.686;9.170;2024-01-07T13:50:00;2.60;99.90
39621;DHT22;25309;48.686;9.170;2024-01-07T13:52:27;2.60;99.90
39621;DHT22;25309;48.686;9.170;2024-01-07T13:54:56;2.50;99.90
39621;DHT22;25309;48.686;9.170;2024-01-07T13:57:25;2.50;99.90
39621;DHT22;25309;48.686;9.170;2024-01-07T13:59:52;2.50;99.90
39621;DHT22;25309;48.686;9.170;2024-01-07T14:02:19;2.50;99.90
39621;DHT22;25309;48.686;9.170;2024-01-07T14:04:49;2.50;99.90
39621;DHT22;25309;48.686;9.170;2024-01-07T14:07:18;2.50;99.90
39621;DHT22;25309;48.686;9.170;2024-01-07T14:09:47;2.40;99.90
39621;DHT22;25309;48.686;9.170;2024-01-07T14:12:14;2.40;99.90
39621;DHT22;25309;48.686;9.170;2024-01-07T14:14:42;2.40;99.90
39621;DHT22;25309;48.686;9.170;2024-01-07T14:17:09;2.40;99.90
39621;DHT22;25309;48.686;9.170;2024-01-07T14:19:36;2.30;99.90
39621;DHT22;25309;48.686;9.170;2024-01-07T14:22:03;2.30;99.90
39621;DHT22;25309;48.686;9.170;2024-01-07T14:24:30;2.20;99.90
39621;DHT22;25309;48.686;9.170;2024-01-07T14:26:57;2.20;99.90
39621;DHT22;25309;48.686;9.170;2024-01-07T14:29:26;2.10;99.90
39621;DHT22;25309;48.686;9.170;2024-01-07T14:31:54;2.10;99.90
39621;DHT22;25309;48.686;9.170;2024-01-07T14:34:21;2.00;99.90
39621;DHT22;25309;48.686;9.170;2024-01-07T14:36:48;2.00;99.90
39621;DHT22;25309;48.686;9.170;2024-01-07T14:39:15;1.90;99.90
39621;DHT22;25309;48.686;9.170;2024-01-07T14:41:42;1.90;99.90
39621;DHT22;25309;48.686;9.170;2024-01-07T14:44:10;1.90;99.90
39621;DHT22;25309;48.686;9.170;2024-01-07T14:46:41;1.80;99.90
39621;DHT22;25309;48.686;9.170;2024-01-07T14:49:09;1.80;99.90
39621;DHT22;25309;48.686;9.170;2024-01-07T14:51:36;1.70;99.90
39621;DHT22;25309;48.686;9.170;2024-01-07T14:54:03;1.70;99.90
39621;DHT22;25309;48.686;9.170;2024-01-07T14:56:30;1.70;99.90
39621;DHT22;25309;48.686;9.170;2024-01-07T14:58:57;1.70;99.90
39621;DHT22;25309;48.686;9.170;2024-01-07T15:01:24;1.70;99.90
39621;DHT22;25309;48.686;9.170;2024-01-07T15:03:51;1.70;99.90
39621;DHT22;25309;48.686;9.170;2024-01-07T15:06:20;1.70;99.90
39621;DHT22;25309;48.686;9.170;2024-01-07T15:08:47;1.60;99.90
39621;DHT22;25309;48.686;9.170;2024-01-07T15:11:18;1.60;99.90
39621;DHT22;25309;48.686;9.170;2024-01-07T15:13:45;1.60;99.90
39621;DHT22;25309;48.686;9.170;2024-01-07T15:16:12;1.60;99.90
39621;DHT22;25309;48.686;9.170;2024-01-07T15:18:39;1.60;99.90
39621;DHT22;25309;48.686;9.170;2024-01-07T15:21:06;1.60;99.90
39621;DHT22;25309;48.686;9.170;2024-01-07T15:23:36;1.60;99.90
39621;DHT22;25309;48.686;9.170;2024-01-07T15:26:04;1.60;99.90
39621;DHT22;25309;48.686;9.170;2024-01-07T15:28:31;1.60;99.90
39621;DHT22;25309;48.686;9.170;2024-01-07T15:30:58;1.60;99.90
39621;DHT22;25309;48.686;9.170;2024-01-07T15:33:25;1.50;99.90
39621;DHT22;25309;48.686;9.170;2024-01-07T15:35:53;1.50;99.90
39621;DHT22;25309;48.686;9.170;2024-01-07T15:38:20;1.50;99.90
39621;DHT22;25309;48.686;9.170;2024-01-07T15:40:48;1.50;99.90
39621;DHT22;25309;48.686;9.170;2024-01-07T15:43:15;1.40;99.90
39621;DHT22;25309;48.686;9.170;2024-01-07T15:45:42;1.40;99.90
39621;DHT22;25309;48.686;9.170;2024-01-07T15:48:09;1.40;99.90
39621;DHT22;25309;48.686;9.170;2024-01-07T15:50:36;1.40;99.90